createdAt,value
2019-03-04T00:00:04.954Z,95483.09
2019-03-04T00:01:45.605Z,95476.41
2019-03-04T00:03:25.002Z,95478.39
2019-03-04T00:05:00.810Z,95475.23
2019-03-04T00:06:39.413Z,95477.20
2019-03-04T00:08:18.594Z,95469.77
2019-03-04T00:09:58.257Z,95474.16
2019-03-04T00:11:36.490Z,95470.97
2019-03-04T00:13:13.637Z,95470.06
2019-03-04T00:14:51.565Z,95472.03
2019-03-04T00:16:30.512Z,95474.01
2019-03-04T00:18:11.578Z,95452.03
2019-03-04T00:19:48.460Z,95448.11
2019-03-04T00:21:25.350Z,95442.52
2019-03-04T00:23:03.352Z,95447.81
2019-03-04T00:24:39.328Z,95450.98
2019-03-04T00:26:14.363Z,95444.02
2019-03-04T00:27:50.566Z,95443.73
2019-03-04T00:29:26.075Z,95438.89
2019-03-04T00:31:05.185Z,95444.63
2019-03-04T00:32:42.731Z,95424.80
2019-03-04T00:34:18.188Z,95435.09
2019-03-04T00:35:53.639Z,95429.34
2019-03-04T00:37:28.654Z,95436.31
2019-03-04T00:39:05.143Z,95427.37
2019-03-04T00:40:40.257Z,95427.69
2019-03-04T00:42:15.837Z,95435.41
2019-03-04T00:43:51.486Z,95438.74
2019-03-04T00:45:26.636Z,95441.38
2019-03-04T00:47:02.187Z,95432.69
2019-03-04T00:48:38.149Z,95436.05
2019-03-04T00:50:13.636Z,95428.21
2019-03-04T00:51:49.047Z,95418.67
2019-03-04T00:53:24.456Z,95416.55
2019-03-04T00:55:00.386Z,95408.84
2019-03-04T00:56:35.579Z,95392.49
2019-03-04T00:58:10.605Z,95396.29
2019-03-04T00:59:46.697Z,95390.98
2019-03-04T01:01:22.169Z,95386.31
2019-03-04T01:02:57.659Z,95383.36
2019-03-04T01:04:32.937Z,95392.84
2019-03-04T01:06:08.137Z,95388.66
2019-03-04T01:07:43.261Z,95384.72
2019-03-04T01:09:18.597Z,95384.11
2019-03-04T01:10:56.817Z,95374.23
2019-03-04T01:12:31.933Z,95359.73
2019-03-04T01:14:14.111Z,95362.25
2019-03-04T01:15:49.396Z,95340.59
2019-03-04T01:17:24.515Z,95326.66
2019-03-04T01:18:59.737Z,95319.12
2019-03-04T01:20:34.955Z,95331.88
2019-03-04T01:22:10.119Z,95337.58
2019-03-04T01:23:45.254Z,95330.30
2019-03-04T01:25:23.738Z,95330.91
2019-03-04T01:26:58.979Z,95320.02
2019-03-04T01:28:34.688Z,95327.30
2019-03-04T01:30:15.235Z,95326.36
2019-03-04T01:31:50.374Z,95333.32
2019-03-04T01:33:27.022Z,95342.42
2019-03-04T01:35:02.382Z,95346.95
2019-03-04T01:36:37.592Z,95321.34
2019-03-04T01:38:13.321Z,95337.23
2019-03-04T01:39:48.826Z,95331.17
2019-03-04T01:41:24.374Z,95317.55
2019-03-04T01:42:59.430Z,95323.00
2019-03-04T01:44:34.688Z,95319.20
2019-03-04T01:46:10.498Z,95310.55
2019-03-04T01:47:46.080Z,95311.16
2019-03-04T01:49:21.795Z,95317.62
2019-03-04T01:50:56.999Z,95319.73
2019-03-04T01:52:32.249Z,95315.33
2019-03-04T01:54:07.323Z,95306.55
2019-03-04T01:55:42.594Z,95300.48
2019-03-04T01:57:18.352Z,95298.36
2019-03-04T01:58:53.477Z,95301.09
2019-03-04T02:00:28.740Z,95303.49
2019-03-04T02:02:04.044Z,95297.86
2019-03-04T02:03:39.663Z,95306.36
2019-03-04T02:05:15.262Z,95303.78
2019-03-04T02:06:52.523Z,95302.09
2019-03-04T02:08:28.044Z,95296.21
2019-03-04T02:10:03.298Z,95272.57
2019-03-04T02:11:39.092Z,95264.65
2019-03-04T02:13:14.273Z,95259.77
2019-03-04T02:14:49.322Z,95242.47
2019-03-04T02:16:24.535Z,95226.09
2019-03-04T02:18:02.658Z,95218.69
2019-03-04T02:19:37.792Z,95213.83
2019-03-04T02:21:13.474Z,95180.36
2019-03-04T02:22:48.629Z,95169.98
2019-03-04T02:24:26.124Z,95118.79
2019-03-04T02:26:14.234Z,95131.89
2019-03-04T02:27:56.077Z,95173.88
2019-03-04T02:29:31.174Z,95160.37
2019-03-04T02:31:06.393Z,95140.55
2019-03-04T02:32:45.578Z,95135.98
2019-03-04T02:34:20.994Z,95122.68
2019-03-04T02:35:56.580Z,95143.91
2019-03-04T02:37:31.860Z,95150.30
2019-03-04T02:39:07.707Z,95143.44
2019-03-04T02:40:43.369Z,95134.95
2019-03-04T02:42:20.317Z,95126.30
2019-03-04T02:43:55.868Z,95128.44
2019-03-04T02:45:31.324Z,95124.63
2019-03-04T02:47:06.593Z,95109.63
2019-03-04T02:48:44.533Z,95109.49
2019-03-04T02:50:20.968Z,95098.90
2019-03-04T02:51:56.331Z,95089.66
2019-03-04T02:53:31.578Z,95089.80
2019-03-04T02:55:07.566Z,95069.35
2019-03-04T02:56:43.158Z,95076.78
2019-03-04T02:58:18.311Z,95062.26
2019-03-04T02:59:53.991Z,95067.10
2019-03-04T03:01:29.665Z,95042.56
2019-03-04T03:03:04.942Z,95054.08
2019-03-04T03:04:40.735Z,95036.19
2019-03-04T03:06:16.091Z,95028.80
2019-03-04T03:07:51.310Z,95037.67
2019-03-04T03:09:26.551Z,95034.81
2019-03-04T03:11:02.274Z,95026.55
2019-03-04T03:12:48.474Z,95031.38
2019-03-04T03:14:23.972Z,95037.17
2019-03-04T03:15:59.578Z,95025.42
2019-03-04T03:17:35.407Z,95036.02
2019-03-04T03:19:13.559Z,95010.20
2019-03-04T03:20:48.821Z,95026.92
2019-03-04T03:22:24.126Z,95014.80
2019-03-04T03:23:59.663Z,95012.68
2019-03-04T03:25:34.862Z,95014.09
2019-03-04T03:27:10.888Z,95000.32
2019-03-04T03:28:46.152Z,95010.61
2019-03-04T03:30:21.441Z,94992.62
2019-03-04T03:31:56.756Z,95009.45
2019-03-04T03:33:31.864Z,94991.66
2019-03-04T03:35:08.789Z,94985.59
2019-03-04T03:36:47.289Z,94969.98
2019-03-04T03:38:22.785Z,94954.79
2019-03-04T03:39:58.714Z,94969.17
2019-03-04T03:41:35.261Z,94962.39
2019-03-04T03:43:10.998Z,94959.67
2019-03-04T03:44:46.113Z,94952.16
2019-03-04T03:46:21.678Z,94930.00
2019-03-04T03:47:56.721Z,94918.48
2019-03-04T03:49:32.019Z,94938.22
2019-03-04T03:51:07.520Z,94919.37
2019-03-04T03:52:43.024Z,94922.44
2019-03-04T03:54:18.397Z,94906.20
2019-03-04T03:55:53.599Z,94903.86
2019-03-04T03:57:29.089Z,94870.30
2019-03-04T03:59:04.581Z,94854.20
2019-03-04T04:00:39.846Z,94863.83
2019-03-04T04:02:14.970Z,94855.30
2019-03-04T04:03:50.115Z,94841.84
2019-03-04T04:05:25.326Z,94828.70
2019-03-04T04:07:01.359Z,94824.11
2019-03-04T04:08:36.662Z,94795.84
2019-03-04T04:10:14.937Z,94801.56
2019-03-04T04:11:50.710Z,94820.88
2019-03-04T04:13:25.920Z,94832.19
2019-03-04T04:15:01.000Z,94836.02
2019-03-04T04:16:36.232Z,94860.43
2019-03-04T04:18:11.393Z,94845.80
2019-03-04T04:19:46.498Z,94869.02
2019-03-04T04:21:22.243Z,94834.48
2019-03-04T04:22:57.846Z,94811.17
2019-03-04T04:24:33.150Z,94795.42
2019-03-04T04:26:21.638Z,94771.72
2019-03-04T04:27:57.097Z,94760.20
2019-03-04T04:29:36.968Z,94715.31
2019-03-04T04:31:12.801Z,94720.52
2019-03-04T04:32:47.914Z,94714.17
2019-03-04T04:34:23.185Z,94727.33
2019-03-04T04:35:58.377Z,94687.90
2019-03-04T04:37:34.399Z,94679.88
2019-03-04T04:39:10.093Z,94657.04
2019-03-04T04:40:45.439Z,94628.38
2019-03-04T04:42:20.759Z,94625.66
2019-03-04T04:43:55.855Z,94629.26
2019-03-04T04:45:33.075Z,94684.84
2019-03-04T04:47:11.617Z,94671.56
2019-03-04T04:48:46.751Z,94696.37
2019-03-04T04:50:22.850Z,94698.59
2019-03-04T04:52:03.927Z,94687.32
2019-03-04T04:53:39.299Z,94674.55
2019-03-04T04:55:14.366Z,94658.28
2019-03-04T04:56:49.771Z,94677.28
2019-03-04T04:58:24.863Z,94659.02
2019-03-04T05:00:00.293Z,94676.23
2019-03-04T05:01:35.349Z,94671.01
2019-03-04T05:03:10.487Z,94679.70
2019-03-04T05:04:45.564Z,94687.02
2019-03-04T05:06:20.567Z,94680.68
2019-03-04T05:07:56.281Z,94693.45
2019-03-04T05:09:31.323Z,94677.43
2019-03-04T05:11:10.838Z,94666.39
2019-03-04T05:12:46.006Z,94656.97
2019-03-04T05:14:21.075Z,94660.19
2019-03-04T05:15:56.117Z,94647.65
2019-03-04T05:17:31.137Z,94646.80
2019-03-04T05:19:06.275Z,94650.98
2019-03-04T05:20:41.318Z,94650.11
2019-03-04T05:22:16.843Z,94603.25
2019-03-04T05:23:52.835Z,94627.05
2019-03-04T05:25:27.895Z,94637.70
2019-03-04T05:27:02.989Z,94618.61
2019-03-04T05:28:38.083Z,94607.09
2019-03-04T05:30:17.783Z,94593.70
2019-03-04T05:31:52.804Z,94575.00
2019-03-04T05:33:27.937Z,94577.98
2019-03-04T05:35:02.971Z,94575.62
2019-03-04T05:36:38.016Z,94577.11
2019-03-04T05:38:13.373Z,94573.14
2019-03-04T05:39:48.590Z,94560.25
2019-03-04T05:41:23.871Z,94548.72
2019-03-04T05:42:59.273Z,94544.63
2019-03-04T05:44:35.956Z,94535.47
2019-03-04T05:46:11.019Z,94538.81
2019-03-04T05:47:48.419Z,94533.84
2019-03-04T05:49:23.658Z,94531.73
2019-03-04T05:50:58.719Z,94527.03
2019-03-04T05:52:36.862Z,94523.81
2019-03-04T05:54:12.046Z,94512.66
2019-03-04T05:55:47.970Z,94517.98
2019-03-04T05:57:23.150Z,94520.83
2019-03-04T05:58:58.276Z,94504.45
2019-03-04T06:00:40.822Z,94492.80
2019-03-04T06:02:16.197Z,94496.14
2019-03-04T06:03:55.566Z,94490.69
2019-03-04T06:05:30.671Z,94482.89
2019-03-04T06:07:13.234Z,94501.60
2019-03-04T06:08:48.337Z,94492.05
2019-03-04T06:10:24.575Z,94472.58
2019-03-04T06:11:59.979Z,94486.83
2019-03-04T06:13:35.845Z,94483.98
2019-03-04T06:15:15.389Z,94477.66
2019-03-04T06:16:50.768Z,94502.20
2019-03-04T06:18:25.930Z,94531.72
2019-03-04T06:20:01.489Z,94509.16
2019-03-04T06:21:36.884Z,94526.88
2019-03-04T06:23:12.779Z,94519.21
2019-03-04T06:24:48.080Z,94501.22
2019-03-04T06:26:23.181Z,94510.77
2019-03-04T06:27:58.399Z,94512.75
2019-03-04T06:29:33.893Z,94492.66
2019-03-04T06:31:12.234Z,94477.78
2019-03-04T06:32:47.379Z,94488.45
2019-03-04T06:34:22.831Z,94483.71
2019-03-04T06:36:00.261Z,94474.06
2019-03-04T06:37:38.484Z,94484.23
2019-03-04T06:39:14.338Z,94479.12
2019-03-04T06:40:52.717Z,94490.42
2019-03-04T06:42:29.605Z,94485.20
2019-03-04T06:44:04.762Z,94495.37
2019-03-04T06:45:41.940Z,94491.53
2019-03-04T06:47:17.976Z,94467.34
2019-03-04T06:49:04.999Z,94477.16
2019-03-04T06:50:51.297Z,94485.20
2019-03-04T06:52:29.821Z,94474.30
2019-03-04T06:54:46.820Z,94470.47
2019-03-04T06:56:29.431Z,94444.30
2019-03-04T06:58:04.504Z,94444.81
2019-03-04T07:00:19.847Z,94453.23
2019-03-04T07:01:58.409Z,94451.09
2019-03-04T07:03:47.460Z,94507.33
2019-03-04T07:05:52.556Z,94546.22
2019-03-04T07:07:34.084Z,94521.53
2019-03-04T07:09:15.502Z,94568.25
2019-03-04T07:10:50.987Z,94578.12
2019-03-04T07:12:27.315Z,94599.68
2019-03-04T07:14:02.997Z,94605.03
2019-03-04T07:15:43.582Z,94610.16
2019-03-04T07:17:22.278Z,94626.20
2019-03-04T07:19:05.184Z,94620.80
2019-03-04T07:20:42.090Z,94633.84
2019-03-04T07:22:19.671Z,94674.11
2019-03-04T07:24:06.382Z,94691.59
2019-03-04T07:25:46.268Z,94712.23
2019-03-04T07:27:28.861Z,94727.95
2019-03-04T07:29:08.495Z,94729.59
2019-03-04T07:30:44.856Z,94727.34
2019-03-04T07:32:29.849Z,94733.47
2019-03-04T07:34:21.582Z,94711.34
2019-03-04T07:35:57.848Z,94701.10
2019-03-04T07:37:42.382Z,94709.52
2019-03-04T07:39:25.658Z,94698.20
2019-03-04T07:41:05.161Z,94708.38
2019-03-04T07:42:47.821Z,94735.11
2019-03-04T07:44:23.502Z,94744.41
2019-03-04T07:46:01.837Z,94755.55
2019-03-04T07:47:41.497Z,94748.57
2019-03-04T07:49:36.966Z,94764.06
2019-03-04T07:51:18.069Z,94725.35
2019-03-04T07:52:59.384Z,94743.50
2019-03-04T07:54:37.734Z,94748.01
2019-03-04T07:56:20.239Z,94760.64
2019-03-04T07:57:56.123Z,94757.10
2019-03-04T07:59:37.720Z,94766.40
2019-03-04T08:01:13.028Z,94752.34
2019-03-04T08:02:48.776Z,94740.89
2019-03-04T08:04:27.604Z,94738.00
2019-03-04T08:06:10.689Z,94735.72
2019-03-04T08:07:54.305Z,94746.57
2019-03-04T08:10:14.587Z,94758.61
2019-03-04T08:12:25.437Z,94764.44
2019-03-04T08:14:07.122Z,94750.41
2019-03-04T08:16:01.010Z,94745.36
2019-03-04T08:17:36.559Z,94753.78
2019-03-04T08:19:12.345Z,94735.19
2019-03-04T08:20:50.185Z,94735.63
2019-03-04T08:22:25.855Z,94736.52
2019-03-04T08:24:01.379Z,94729.35
2019-03-04T08:25:36.839Z,94737.41
2019-03-04T08:27:15.802Z,94736.80
2019-03-04T08:28:51.591Z,94731.38
2019-03-04T08:30:34.593Z,94730.53
2019-03-04T08:32:15.323Z,94728.00
2019-03-04T08:34:03.962Z,94737.14
2019-03-04T08:35:47.918Z,94739.73
2019-03-04T08:37:26.250Z,94730.52
2019-03-04T08:39:09.426Z,94724.41
2019-03-04T08:40:49.387Z,94727.66
2019-03-04T08:42:33.200Z,94714.59
2019-03-04T08:44:11.217Z,94716.22
2019-03-04T08:45:48.791Z,94696.45
2019-03-04T08:47:41.642Z,94695.91
2019-03-04T08:49:18.821Z,94691.91
2019-03-04T08:50:54.299Z,94679.97
2019-03-04T08:52:39.701Z,94676.76
2019-03-04T08:54:22.602Z,94665.95
2019-03-04T08:56:00.693Z,94653.31
2019-03-04T08:57:36.799Z,94652.63
2019-03-04T08:59:27.156Z,94652.86
2019-03-04T09:01:12.709Z,94654.34
2019-03-04T09:02:58.136Z,94653.19
2019-03-04T09:04:34.464Z,94656.03
2019-03-04T09:06:12.921Z,94661.75
2019-03-04T09:07:51.556Z,94649.95
2019-03-04T09:09:27.504Z,94641.20
2019-03-04T09:11:08.257Z,94637.19
2019-03-04T09:12:43.830Z,94625.23
2019-03-04T09:14:19.037Z,94621.86
2019-03-04T09:15:57.599Z,94625.71
2019-03-04T09:17:32.849Z,94623.27
2019-03-04T09:19:08.388Z,94626.13
2019-03-04T09:20:46.805Z,94634.16
2019-03-04T09:22:22.981Z,94629.38
2019-03-04T09:24:01.842Z,94616.06
2019-03-04T09:25:39.768Z,94621.24
2019-03-04T09:27:31.689Z,94611.91
2019-03-04T09:29:09.557Z,94612.67
2019-03-04T09:30:46.366Z,94607.42
2019-03-04T09:32:28.100Z,94608.72
2019-03-04T09:34:03.403Z,94599.03
2019-03-04T09:35:38.587Z,94597.27
2019-03-04T09:37:13.735Z,94604.57
2019-03-04T09:38:53.370Z,94599.20
2019-03-04T09:40:30.052Z,94605.54
2019-03-04T09:42:16.123Z,94590.31
2019-03-04T09:43:51.688Z,94604.79
2019-03-04T09:45:38.969Z,94586.98
2019-03-04T09:47:14.522Z,94591.05
2019-03-04T09:48:49.661Z,94582.66
2019-03-04T09:50:29.501Z,94593.52
2019-03-04T09:52:04.594Z,94607.11
2019-03-04T09:53:39.957Z,94587.54
2019-03-04T09:55:16.042Z,94590.80
2019-03-04T09:56:51.220Z,94581.91
2019-03-04T09:58:29.901Z,94577.55
2019-03-04T10:00:33.505Z,94574.36
2019-03-04T10:02:35.213Z,94586.87
2019-03-04T10:04:53.167Z,94582.52
2019-03-04T10:07:09.733Z,94563.48
2019-03-04T10:09:01.181Z,94583.30
2019-03-04T10:11:38.368Z,94572.09
2019-03-04T10:14:10.645Z,94571.75
2019-03-04T10:16:19.589Z,94579.44
2019-03-04T10:18:25.705Z,94567.41
2019-03-04T10:20:52.432Z,94575.63
2019-03-04T10:23:37.349Z,94576.45
2019-03-04T10:25:51.829Z,94575.02
2019-03-04T10:28:02.756Z,94581.36
2019-03-04T10:30:16.065Z,94595.01
2019-03-04T10:32:18.965Z,94587.41
2019-03-04T10:34:34.153Z,94614.73
2019-03-04T10:36:39.997Z,94591.95
2019-03-04T10:38:43.267Z,94589.69
2019-03-04T10:41:06.440Z,94591.04
2019-03-04T10:43:32.438Z,94579.25
2019-03-04T10:46:01.223Z,94569.25
2019-03-04T10:47:41.013Z,94570.20
2019-03-04T10:49:28.759Z,94556.09
2019-03-04T10:51:08.539Z,94556.42
2019-03-04T10:52:48.835Z,94565.34
2019-03-04T10:54:25.411Z,94548.82
2019-03-04T10:56:01.102Z,94542.46
2019-03-04T10:57:44.423Z,94544.64
2019-03-04T10:59:28.772Z,94548.24
2019-03-04T11:01:04.219Z,94541.31
2019-03-04T11:02:39.480Z,94547.80
2019-03-04T11:04:17.819Z,94532.27
2019-03-04T11:05:56.052Z,94554.98
2019-03-04T11:07:36.593Z,94547.39
2019-03-04T11:09:11.811Z,94551.41
2019-03-04T11:10:49.051Z,94524.62
2019-03-04T11:12:24.578Z,94538.66
2019-03-04T11:14:02.206Z,94536.08
2019-03-04T11:15:40.433Z,94550.18
2019-03-04T11:17:18.666Z,94524.21
2019-03-04T11:18:54.036Z,94537.09
2019-03-04T11:20:32.399Z,94532.54
2019-03-04T11:22:07.665Z,94523.09
2019-03-04T11:23:44.024Z,94536.34
2019-03-04T11:25:22.645Z,94519.95
2019-03-04T11:26:59.832Z,94532.12
2019-03-04T11:28:35.869Z,94542.36
2019-03-04T11:30:17.855Z,94515.16
2019-03-04T11:32:00.550Z,94512.84
2019-03-04T11:33:43.157Z,94502.84
2019-03-04T11:35:18.558Z,94525.76
2019-03-04T11:36:54.382Z,94520.48
2019-03-04T11:38:39.713Z,94532.34
2019-03-04T11:40:35.445Z,94511.36
2019-03-04T11:42:14.142Z,94514.08
2019-03-04T11:43:51.911Z,94499.03
2019-03-04T11:45:35.047Z,94493.25
2019-03-04T11:47:12.323Z,94473.47
2019-03-04T11:48:48.003Z,94483.95
2019-03-04T11:50:30.021Z,94501.82
2019-03-04T11:52:12.833Z,94484.06
2019-03-04T11:53:51.167Z,94505.64
2019-03-04T11:55:30.178Z,94519.92
2019-03-04T11:57:10.780Z,94507.47
2019-03-04T11:59:05.404Z,94532.42
2019-03-04T12:00:49.445Z,94537.56
2019-03-04T12:02:38.948Z,94545.70
2019-03-04T12:04:16.534Z,94564.63
2019-03-04T12:07:59.201Z,94612.06
2019-03-04T12:09:39.217Z,94576.94
2019-03-04T12:11:21.477Z,94607.11
2019-03-04T12:13:03.164Z,94622.89
2019-03-04T12:14:43.283Z,94628.23
2019-03-04T12:16:18.476Z,94669.50
2019-03-04T12:17:55.423Z,94689.50
2019-03-04T12:19:36.427Z,94726.74
2019-03-04T12:21:14.820Z,94718.41
2019-03-04T12:22:53.979Z,94729.44
2019-03-04T12:24:30.170Z,94745.53
2019-03-04T12:26:06.111Z,94759.05
2019-03-04T12:27:46.517Z,94770.58
2019-03-04T12:29:22.229Z,94772.70
2019-03-04T12:31:00.536Z,94783.82
2019-03-04T12:32:39.864Z,94793.44
2019-03-04T12:34:27.859Z,94812.50
2019-03-04T12:36:11.108Z,94814.91
2019-03-04T12:37:46.816Z,94811.75
2019-03-04T12:39:27.658Z,94836.83
2019-03-04T12:41:07.657Z,94828.56
2019-03-04T12:42:45.813Z,94861.16
2019-03-04T12:44:29.385Z,94857.23
2019-03-04T12:46:04.665Z,94863.22
2019-03-04T12:47:41.394Z,94866.96
2019-03-04T12:49:19.020Z,94874.63
2019-03-04T12:50:56.127Z,94880.17
2019-03-04T12:52:37.746Z,94884.69
2019-03-04T12:54:13.471Z,94899.55
2019-03-04T12:55:48.766Z,94906.04
2019-03-04T12:57:24.618Z,94907.25
2019-03-04T12:59:00.239Z,94919.14
2019-03-04T13:00:35.576Z,94917.78
2019-03-04T13:02:12.448Z,94925.77
2019-03-04T13:03:47.981Z,94934.34
2019-03-04T13:05:23.987Z,94931.18
2019-03-04T13:07:01.353Z,94941.27
2019-03-04T13:08:37.925Z,94943.22
2019-03-04T13:10:13.251Z,94942.16
2019-03-04T13:11:55.993Z,94957.51
2019-03-04T13:13:30.894Z,94960.21
2019-03-04T13:15:13.455Z,94962.00
2019-03-04T13:16:48.632Z,94963.23
2019-03-04T13:18:23.759Z,94961.88
2019-03-04T13:20:01.952Z,94979.62
2019-03-04T13:21:44.609Z,94986.52
2019-03-04T13:23:33.525Z,94990.14
2019-03-04T13:25:10.710Z,94997.94
2019-03-04T13:26:52.345Z,95002.90
2019-03-04T13:28:28.173Z,94989.38
2019-03-04T13:30:04.779Z,95002.90
2019-03-04T13:31:41.977Z,95009.37
2019-03-04T13:33:21.553Z,95004.88
2019-03-04T13:35:02.412Z,95012.11
2019-03-04T13:36:40.944Z,95013.14
2019-03-04T13:38:23.931Z,95009.39
2019-03-04T13:40:07.732Z,95015.27
2019-03-04T13:41:43.669Z,95018.27
2019-03-04T13:43:30.723Z,95026.86
2019-03-04T13:45:22.461Z,95028.48
2019-03-04T13:46:59.558Z,95020.62
2019-03-04T13:48:35.002Z,95013.27
2019-03-04T13:50:13.940Z,95029.81
2019-03-04T13:51:57.380Z,95031.48
2019-03-04T13:53:35.368Z,95044.75
2019-03-04T13:55:13.695Z,95056.17
2019-03-04T13:56:55.156Z,95049.25
2019-03-04T13:58:40.493Z,95043.10
2019-03-04T14:00:22.350Z,95039.03
2019-03-04T14:02:00.381Z,95050.49
2019-03-04T14:03:36.642Z,95046.56
2019-03-04T14:05:12.835Z,95037.84
2019-03-04T14:06:49.812Z,95041.47
2019-03-04T14:08:26.869Z,95041.78
2019-03-04T14:10:02.430Z,95042.38
2019-03-04T14:11:37.539Z,95028.67
2019-03-04T14:13:12.761Z,95030.66
2019-03-04T14:14:49.192Z,95042.97
2019-03-04T14:16:25.960Z,95040.87
2019-03-04T14:18:01.151Z,95025.52
2019-03-04T14:19:37.022Z,95029.73
2019-03-04T14:21:14.473Z,95028.98
2019-03-04T14:22:57.592Z,95020.58
2019-03-04T14:24:32.228Z,95030.06
2019-03-04T14:26:17.880Z,95030.20
2019-03-04T14:27:57.715Z,95017.70
2019-03-04T14:29:35.045Z,95027.33
2019-03-04T14:31:10.502Z,95017.58
2019-03-04T14:32:45.824Z,95014.54
2019-03-04T14:34:21.523Z,95014.84
2019-03-04T14:35:56.798Z,95015.87
2019-03-04T14:37:39.080Z,95011.66
2019-03-04T14:39:26.648Z,95010.30
2019-03-04T14:41:02.455Z,95001.54
2019-03-04T14:42:38.275Z,95006.66
2019-03-04T14:44:17.155Z,94977.15
2019-03-04T14:46:00.419Z,94979.59
2019-03-04T14:47:47.628Z,94999.91
2019-03-04T14:49:25.796Z,94996.59
2019-03-04T14:51:01.285Z,94993.31
2019-03-04T14:52:43.270Z,95002.95
2019-03-04T14:54:20.838Z,94991.50
2019-03-04T14:55:56.590Z,94993.47
2019-03-04T14:57:44.551Z,94983.23
2019-03-04T14:59:28.808Z,94984.73
2019-03-04T15:01:07.686Z,94993.91
2019-03-04T15:02:42.950Z,94991.03
2019-03-04T15:04:21.397Z,94987.72
2019-03-04T15:06:06.263Z,94989.22
2019-03-04T15:07:37.270Z,94991.18
2019-03-04T15:11:30.439Z,94985.78
2019-03-04T15:13:10.031Z,94988.94
2019-03-04T15:14:53.796Z,94994.52
2019-03-04T15:16:45.022Z,95002.20
2019-03-04T15:18:32.413Z,94998.88
2019-03-04T15:20:33.606Z,95006.25
2019-03-04T15:22:16.770Z,95015.44
2019-03-04T15:23:53.870Z,95015.59
2019-03-04T15:25:33.971Z,95027.19
2019-03-04T15:27:14.048Z,95015.74
2019-03-04T15:28:56.311Z,95013.91
2019-03-04T15:30:33.464Z,95033.61
2019-03-04T15:32:12.381Z,95032.08
2019-03-04T15:33:57.361Z,95035.25
2019-03-04T15:35:37.098Z,95019.91
2019-03-04T15:37:16.171Z,95012.86
2019-03-04T15:38:53.705Z,95028.06
2019-03-04T15:40:29.933Z,95035.59
2019-03-04T15:42:10.532Z,95027.46
2019-03-04T15:43:51.641Z,95043.42
2019-03-04T15:45:48.585Z,95048.39
2019-03-04T15:47:42.800Z,95054.25
2019-03-04T15:49:20.369Z,95055.45
2019-03-04T15:51:12.268Z,95058.78
2019-03-04T15:52:51.737Z,95065.84
2019-03-04T15:54:27.727Z,95054.39
2019-03-04T15:56:03.231Z,95054.98
2019-03-04T15:57:51.081Z,95040.97
2019-03-04T15:59:28.616Z,95052.27
2019-03-04T16:01:17.107Z,95053.92
2019-03-04T16:02:50.347Z,95061.48
2019-03-04T16:04:29.599Z,95054.69
2019-03-04T16:06:05.302Z,95055.47
2019-03-04T16:08:07.170Z,95043.42
2019-03-04T16:09:45.331Z,95053.20
2019-03-04T16:11:24.209Z,95053.81
2019-03-04T16:12:59.903Z,95054.70
2019-03-04T16:14:44.850Z,95061.94
2019-03-04T16:16:22.816Z,95061.48
2019-03-04T16:18:01.575Z,95064.03
2019-03-04T16:19:40.352Z,95077.14
2019-03-04T16:21:17.783Z,95068.88
2019-03-04T16:22:53.481Z,95073.98
2019-03-04T16:24:30.895Z,95088.14
2019-03-04T16:26:13.036Z,95093.25
2019-03-04T16:27:48.843Z,95091.77
2019-03-04T16:29:34.295Z,95083.79
2019-03-04T16:31:10.217Z,95074.16
2019-03-04T16:32:50.774Z,95093.72
2019-03-04T16:34:31.371Z,95099.41
2019-03-04T16:36:07.414Z,95100.78
2019-03-04T16:37:45.330Z,95105.30
2019-03-04T16:39:23.527Z,95100.17
2019-03-04T16:41:02.581Z,95092.34
2019-03-04T16:42:39.528Z,95088.28
2019-03-04T16:44:17.866Z,95090.86
2019-03-04T16:45:58.464Z,95098.37
2019-03-04T16:47:35.410Z,95097.91
2019-03-04T16:49:13.030Z,95102.43
2019-03-04T16:50:52.677Z,95098.21
2019-03-04T16:52:36.002Z,95113.38
2019-03-04T16:54:19.261Z,95111.88
2019-03-04T16:55:58.214Z,95119.10
2019-03-04T16:57:43.946Z,95110.22
2019-03-04T16:59:34.335Z,95115.93
2019-03-04T17:01:11.282Z,95118.19
2019-03-04T17:03:03.829Z,95119.55
2019-03-04T17:04:43.592Z,95120.59
2019-03-04T17:06:21.061Z,95123.30
2019-03-04T17:08:01.172Z,95122.81
2019-03-04T17:09:38.515Z,95123.27
2019-03-04T17:11:16.870Z,95132.73
2019-03-04T17:12:55.014Z,95137.53
2019-03-04T17:14:42.693Z,95147.73
2019-03-04T17:16:21.547Z,95135.97
2019-03-04T17:17:59.858Z,95151.14
2019-03-04T17:19:41.315Z,95155.52
2019-03-04T17:21:21.455Z,95151.89
2019-03-04T17:22:58.229Z,95163.31
2019-03-04T17:24:42.380Z,95164.17
2019-03-04T17:26:21.284Z,95175.27
2019-03-04T17:27:58.213Z,95174.16
2019-03-04T17:29:48.558Z,95182.47
2019-03-04T17:31:38.396Z,95183.19
2019-03-04T17:33:14.210Z,95190.54
2019-03-04T17:34:52.990Z,95196.94
2019-03-04T17:36:31.820Z,95197.69
2019-03-04T17:38:11.944Z,95205.60
2019-03-04T17:39:58.067Z,95208.58
2019-03-04T17:41:33.671Z,95216.97
2019-03-04T17:43:22.756Z,95214.05
2019-03-04T17:45:03.316Z,95220.08
2019-03-04T17:46:38.133Z,95219.17
2019-03-04T17:48:13.679Z,95223.22
2019-03-04T17:49:58.899Z,95228.03
2019-03-04T17:51:40.061Z,95228.03
2019-03-04T17:53:18.390Z,95232.38
2019-03-04T17:54:57.616Z,95241.67
2019-03-04T17:56:33.838Z,95242.81
2019-03-04T17:58:17.688Z,95252.28
2019-03-04T17:59:55.238Z,95246.42
2019-03-04T18:01:31.796Z,95252.37
2019-03-04T18:03:08.817Z,95256.06
2019-03-04T18:04:47.340Z,95256.16
2019-03-04T18:06:23.415Z,95258.39
2019-03-04T18:08:01.180Z,95267.70
2019-03-04T18:09:39.302Z,95268.23
2019-03-04T18:11:19.651Z,95269.30
2019-03-04T18:12:55.962Z,95274.70
2019-03-04T18:14:31.193Z,95274.38
2019-03-04T18:16:06.500Z,95285.20
2019-03-04T18:17:43.089Z,95286.67
2019-03-04T18:19:20.790Z,95297.44
2019-03-04T18:20:58.708Z,95302.04
2019-03-04T18:22:36.556Z,95302.68
2019-03-04T18:24:12.058Z,95303.80
2019-03-04T18:25:53.629Z,95310.08
2019-03-04T18:27:56.472Z,95309.94
2019-03-04T18:29:51.786Z,95306.80
2019-03-04T18:31:42.259Z,95314.46
2019-03-04T18:33:53.961Z,95317.77
2019-03-04T18:36:28.237Z,95323.34
2019-03-04T18:38:23.631Z,95319.30
2019-03-04T18:40:41.710Z,95319.61
2019-03-04T18:43:14.244Z,95317.27
2019-03-04T18:45:25.139Z,95324.31
2019-03-04T18:47:47.405Z,95329.24
2019-03-04T18:49:35.908Z,95317.50
2019-03-04T18:51:14.305Z,95330.17
2019-03-04T18:52:53.177Z,95326.73
2019-03-04T18:54:37.753Z,95331.09
2019-03-04T18:56:21.937Z,95314.77
2019-03-04T18:57:59.711Z,95324.25
2019-03-04T18:59:38.829Z,95327.27
2019-03-04T19:01:30.450Z,95326.95
2019-03-04T19:03:13.516Z,95309.81
2019-03-04T19:05:00.923Z,95323.05
2019-03-04T19:06:35.174Z,95332.38
2019-03-04T19:08:22.326Z,95328.14
2019-03-04T19:10:01.392Z,95331.56
2019-03-04T19:11:39.270Z,95335.78
2019-03-04T19:13:17.319Z,95338.17
2019-03-04T19:15:10.174Z,95344.02
2019-03-04T19:16:49.999Z,95341.16
2019-03-04T19:18:27.850Z,95347.16
2019-03-04T19:20:11.634Z,95346.07
2019-03-04T19:21:49.307Z,95346.88
2019-03-04T19:23:32.348Z,95330.65
2019-03-04T19:25:10.114Z,95336.94
2019-03-04T19:26:51.660Z,95347.37
2019-03-04T19:28:28.881Z,95358.89
2019-03-04T19:30:05.437Z,95356.94
2019-03-04T19:31:46.004Z,95357.22
2019-03-04T19:33:21.238Z,95359.16
2019-03-04T19:35:06.433Z,95359.64
2019-03-04T19:36:48.339Z,95350.08
2019-03-04T19:38:33.246Z,95351.59
2019-03-04T19:40:12.560Z,95360.02
2019-03-04T19:41:58.648Z,95360.02